Time;durP1;ratioP1;P1;durP2;ratioP2;P2;SDS_P1;SDS_P2;PMS_P1;PMS_P2;Temp;Humidity;BMP_temperature;BMP_pressure;BME280_temperature;BME280_humidity;BME280_pressure;Samples;Min_cycle;Max_cycle;Signal;HPM_P1;HPM_P2
2022/06/06 00:07:26;;;;;;;11.32;4.97;;;14.70;99.90;;;;;;20819625;28;20112;-83
2022/06/06 00:17:28;;;;;;;9.38;4.53;;;14.60;99.90;;;;;;20798670;28;20045;-83
2022/06/06 00:27:30;;;;;;;5.13;3.15;;;14.60;99.90;;;;;;20819094;28;20051;-83
2022/06/06 00:37:34;;;;;;;11.10;3.65;;;14.50;99.90;;;;;;20807669;28;20309;-83
2022/06/06 00:47:42;;;;;;;7.75;4.40;;;14.50;99.90;;;;;;20815524;28;20108;-83
2022/06/06 00:57:57;;;;;;;11.30;4.07;;;14.50;99.90;;;;;;20798398;28;20052;-83
2022/06/06 01:07:58;;;;;;;8.20;2.80;;;14.50;99.90;;;;;;20805091;28;21473;-83
2022/06/06 01:18:20;;;;;;;8.70;3.70;;;14.60;99.90;;;;;;20806503;28;20048;-83
2022/06/06 01:28:42;;;;;;;4.75;3.08;;;14.40;99.90;;;;;;20800410;28;20699;-83
2022/06/06 01:38:44;;;;;;;7.20;3.60;;;14.40;99.90;;;;;;20786006;28;20531;-83
2022/06/06 01:48:48;;;;;;;7.18;3.22;;;14.40;99.90;;;;;;20730429;28;20049;-83
2022/06/06 01:58:50;;;;;;;7.82;4.18;;;14.40;99.90;;;;;;20722916;28;20245;-83
2022/06/06 02:08:51;;;;;;;9.82;5.10;;;14.40;99.90;;;;;;20741881;28;20041;-83
2022/06/06 02:18:52;;;;;;;9.20;4.72;;;14.40;99.90;;;;;;20752722;28;20045;-83
2022/06/06 02:28:53;;;;;;;9.07;4.40;;;14.50;99.90;;;;;;20755745;28;20042;-83
2022/06/06 02:38:54;;;;;;;10.82;4.68;;;14.40;99.90;;;;;;20769128;28;20382;-83
2022/06/06 02:48:56;;;;;;;7.30;4.03;;;14.50;99.90;;;;;;20749400;28;20495;-83
2022/06/06 02:59:02;;;;;;;11.80;3.75;;;14.50;99.90;;;;;;20758742;28;20045;-82
2022/06/06 03:09:32;;;;;;;10.75;3.85;;;14.50;99.90;;;;;;20758973;28;20044;-83
2022/06/06 03:30:58;;;;;;;6.53;3.03;;;14.50;99.90;;;;;;20835139;28;20036;-82
2022/06/06 03:41:21;;;;;;;8.90;3.42;;;14.50;99.90;;;;;;20845802;28;20470;-82
2022/06/06 03:52:00;;;;;;;8.18;3.47;;;14.50;99.90;;;;;;20826959;28;20053;-82
2022/06/06 04:02:05;;;;;;;6.05;3.28;;;14.40;99.90;;;;;;20827326;28;20046;-82
2022/06/06 04:12:37;;;;;;;13.15;3.70;;;14.40;99.90;;;;;;20810468;28;20048;-82
2022/06/06 04:23:15;;;;;;;7.40;3.47;;;14.60;99.90;;;;;;20823501;28;20066;-82
2022/06/06 04:33:22;;;;;;;5.78;2.97;;;14.60;99.90;;;;;;20835587;28;20045;-83
2022/06/06 04:43:30;;;;;;;7.93;5.00;;;14.50;99.90;;;;;;20790860;28;20045;-83
2022/06/06 04:53:36;;;;;;;9.98;5.18;;;14.60;99.90;;;;;;20828759;28;20041;-82
2022/06/06 05:03:38;;;;;;;8.63;3.93;;;14.80;99.90;;;;;;20817585;28;20046;-83
2022/06/06 05:13:51;;;;;;;7.07;3.63;;;14.90;99.90;;;;;;20830130;28;20374;-83
2022/06/06 05:24:09;;;;;;;5.57;1.63;;;14.80;99.90;;;;;;20821029;28;20299;-83
2022/06/06 05:34:15;;;;;;;4.07;1.55;;;15.00;99.90;;;;;;20810223;28;20057;-83
2022/06/06 05:44:29;;;;;;;2.58;1.30;;;14.80;99.90;;;;;;20814121;28;20461;-83
2022/06/06 05:54:58;;;;;;;2.53;0.68;;;14.90;99.90;;;;;;20775865;28;20049;-83
2022/06/06 06:05:26;;;;;;;1.42;0.73;;;14.90;99.90;;;;;;20795597;28;20599;-82
2022/06/06 06:15:41;;;;;;;1.48;0.60;;;15.20;99.90;;;;;;20829507;28;20302;-83
2022/06/06 06:25:44;;;;;;;2.00;0.77;;;15.20;99.90;;;;;;20820865;28;21371;-83
2022/06/06 06:36:22;;;;;;;1.33;0.60;;;15.10;99.90;;;;;;20806878;28;20040;-83
2022/06/06 06:46:33;;;;;;;3.28;1.33;;;15.30;99.90;;;;;;20821737;28;20261;-83
2022/06/06 06:57:14;;;;;;;3.70;1.38;;;15.40;99.90;;;;;;20750377;28;20069;-82
2022/06/06 07:18:08;;;;;;;1.83;0.82;;;15.50;99.90;;;;;;20745932;28;20060;-82
2022/06/06 07:28:36;;;;;;;1.33;0.65;;;15.70;99.90;;;;;;20767709;28;20030;-82
2022/06/06 07:38:48;;;;;;;2.38;0.70;;;15.80;99.90;;;;;;20728848;28;20276;-82
2022/06/06 07:49:35;;;;;;;2.78;1.75;;;15.80;99.90;;;;;;20741419;28;20525;-82
2022/06/06 07:59:46;;;;;;;2.00;0.82;;;15.90;99.90;;;;;;20725814;28;20225;-82
2022/06/06 08:10:09;;;;;;;2.20;0.93;;;15.80;99.90;;;;;;20756705;28;20049;-82
2022/06/06 08:20:49;;;;;;;1.70;0.90;;;15.80;99.90;;;;;;20717908;28;21126;-83
2022/06/06 08:30:50;;;;;;;2.30;0.90;;;15.80;99.90;;;;;;20805223;28;20041;-82
2022/06/06 08:41:17;;;;;;;1.90;1.00;;;15.90;99.90;;;;;;20781655;28;20373;-82
2022/06/06 08:51:38;;;;;;;1.10;0.65;;;16.30;99.90;;;;;;20689904;28;20083;-87
2022/06/06 09:02:12;;;;;;;1.85;0.68;;;15.90;99.90;;;;;;20795177;28;20048;-82
2022/06/06 09:12:32;;;;;;;2.05;0.80;;;16.00;99.90;;;;;;20796030;28;20217;-81
2022/06/06 09:23:14;;;;;;;3.50;1.38;;;15.90;99.90;;;;;;20838563;28;20128;-82
2022/06/06 09:33:37;;;;;;;0.98;0.30;;;15.80;99.90;;;;;;20794239;28;20065;-81
2022/06/06 09:44:02;;;;;;;1.27;0.65;;;15.20;99.90;;;;;;20768965;28;20305;-82
2022/06/06 10:05:10;;;;;;;1.58;1.02;;;13.30;99.90;;;;;;20739655;28;20364;-82
2022/06/06 10:15:14;;;;;;;1.20;0.40;;;13.20;99.90;;;;;;20755026;28;20050;-81
2022/06/06 10:25:32;;;;;;;1.23;0.82;;;13.60;99.90;;;;;;20803735;28;20167;-81
2022/06/06 10:35:54;;;;;;;5.95;1.48;;;13.40;99.90;;;;;;20806573;28;20041;-82
2022/06/06 10:46:04;;;;;;;2.13;1.02;;;13.70;99.90;;;;;;20822875;28;20958;-82
2022/06/06 10:56:34;;;;;;;2.80;1.58;;;14.10;99.90;;;;;;20724891;28;20709;-82
2022/06/06 11:07:04;;;;;;;3.50;1.42;;;14.80;99.90;;;;;;20797528;28;20044;-82
2022/06/06 11:17:32;;;;;;;2.70;1.08;;;15.10;99.90;;;;;;20800603;28;20246;-82
2022/06/06 11:27:56;;;;;;;1.95;1.00;;;15.00;99.90;;;;;;20814367;28;20045;-82
2022/06/06 11:38:23;;;;;;;2.72;1.45;;;15.10;99.90;;;;;;20813330;28;20053;-82
2022/06/06 11:48:36;;;;;;;2.97;1.27;;;15.20;99.90;;;;;;20814921;28;20511;-81
2022/06/06 11:59:03;;;;;;;3.20;1.23;;;15.20;99.90;;;;;;20824035;28;20098;-81
2022/06/06 12:09:23;;;;;;;2.50;0.73;;;15.20;99.90;;;;;;20759255;28;20044;-81
2022/06/06 12:19:40;;;;;;;1.77;0.50;;;15.10;99.90;;;;;;20834745;28;20053;-82
2022/06/06 12:30:12;;;;;;;1.58;0.70;;;15.20;99.90;;;;;;20824651;28;20048;-83
2022/06/06 12:40:20;;;;;;;2.13;1.27;;;15.20;99.90;;;;;;20782863;28;20267;-82
2022/06/06 12:50:48;;;;;;;2.90;1.27;;;15.00;99.90;;;;;;20772090;28;20107;-81
2022/06/06 13:11:43;;;;;;;1.95;0.93;;;14.90;99.90;;;;;;20813143;28;20440;-82
2022/06/06 13:22:19;;;;;;;0.80;0.45;;;14.70;99.90;;;;;;20753791;28;20041;-83
2022/06/06 13:32:44;;;;;;;0.57;0.40;;;14.60;99.90;;;;;;20736177;28;20668;-83
2022/06/06 13:42:55;;;;;;;1.08;0.30;;;14.30;99.90;;;;;;20723210;28;20423;-84
2022/06/06 13:53:17;;;;;;;1.40;0.30;;;14.10;99.90;;;;;;20691391;28;20045;-84
2022/06/06 14:03:50;;;;;;;1.30;0.50;;;13.90;99.90;;;;;;20728107;28;20042;-84
2022/06/06 14:13:57;;;;;;;0.82;0.40;;;13.80;99.90;;;;;;20713607;28;20312;-84
2022/06/06 14:24:15;;;;;;;1.30;0.40;;;13.70;99.90;;;;;;20723447;28;20065;-83
2022/06/06 14:34:33;;;;;;;0.90;0.40;;;13.70;99.90;;;;;;20718775;28;21503;-83
2022/06/06 14:44:55;;;;;;;2.17;0.73;;;13.80;99.90;;;;;;20782321;28;20045;-83
2022/06/06 14:54:59;;;;;;;2.28;0.80;;;13.70;99.90;;;;;;20796459;28;20041;-83
2022/06/06 15:05:20;;;;;;;1.98;0.98;;;13.60;99.90;;;;;;20762669;28;20053;-83
2022/06/06 15:15:26;;;;;;;1.65;0.68;;;13.70;99.90;;;;;;20789542;28;20053;-83
2022/06/06 15:25:42;;;;;;;1.77;1.02;;;13.70;99.90;;;;;;20802787;28;20056;-85
2022/06/06 15:36:18;;;;;;;0.38;0.22;;;13.80;99.90;;;;;;20818410;28;21162;-84
2022/06/06 15:46:46;;;;;;;0.40;0.10;;;14.00;99.90;;;;;;20769831;28;20503;-83
2022/06/06 15:57:11;;;;;;;;;;;13.90;99.90;;;;;;20762356;28;20420;-83
2022/06/06 16:07:21;;;;;;;0.60;0.20;;;13.80;99.90;;;;;;20750758;28;20311;-85
2022/06/06 16:17:39;;;;;;;1.45;0.50;;;13.70;99.90;;;;;;20776275;28;20516;-83
2022/06/06 16:27:43;;;;;;;1.60;0.73;;;13.60;99.90;;;;;;20778516;28;20037;-84
2022/06/06 16:38:09;;;;;;;1.27;0.60;;;13.60;99.90;;;;;;20792219;28;20045;-83
2022/06/06 16:48:27;;;;;;;2.45;0.73;;;13.50;99.90;;;;;;20793701;28;20333;-83
2022/06/06 16:58:53;;;;;;;2.35;1.25;;;13.50;99.90;;;;;;20801586;28;20178;-82
2022/06/06 17:09:18;;;;;;;2.72;0.95;;;13.40;99.90;;;;;;20802594;28;20114;-82
2022/06/06 17:19:21;;;;;;;3.13;1.50;;;13.40;99.90;;;;;;20797573;28;20033;-82
2022/06/06 17:29:25;;;;;;;1.92;0.60;;;13.20;99.90;;;;;;20793037;28;20049;-83
2022/06/06 17:39:36;;;;;;;1.23;0.47;;;13.20;99.90;;;;;;20804704;28;20551;-84
2022/06/06 17:49:49;;;;;;;1.60;0.50;;;13.10;99.90;;;;;;20739588;28;20339;-82
2022/06/06 18:00:09;;;;;;;4.65;0.90;;;13.20;99.90;;;;;;20799892;28;20049;-83
2022/06/06 18:10:34;;;;;;;2.25;1.00;;;13.10;99.90;;;;;;20776720;28;20342;-82
2022/06/06 18:20:36;;;;;;;2.65;0.90;;;13.20;99.90;;;;;;20792082;28;20494;-83
2022/06/06 18:30:48;;;;;;;2.40;0.85;;;13.10;99.90;;;;;;20805249;28;20041;-83
2022/06/06 18:40:57;;;;;;;2.22;0.90;;;13.10;99.90;;;;;;20816293;28;20045;-83
2022/06/06 18:51:01;;;;;;;1.77;0.70;;;13.10;99.90;;;;;;20811541;28;21006;-83
2022/06/06 19:01:20;;;;;;;1.67;0.57;;;13.10;99.90;;;;;;20793853;28;20057;-84
2022/06/06 19:11:30;;;;;;;2.35;0.98;;;13.00;99.90;;;;;;20831888;28;20349;-84
2022/06/06 19:21:35;;;;;;;1.95;0.70;;;12.90;99.90;;;;;;20783374;28;20060;-83
2022/06/06 19:31:42;;;;;;;4.88;1.42;;;12.90;99.90;;;;;;20787977;28;20040;-83
2022/06/06 19:41:44;;;;;;;;;;;12.90;99.90;;;;;;20754038;28;21363;-83
2022/06/06 19:51:47;;;;;;;2.33;0.70;;;12.90;99.90;;;;;;20759081;28;19992;-83
2022/06/06 20:01:53;;;;;;;14.73;0.77;;;13.00;99.90;;;;;;20765336;28;20050;-83
2022/06/06 20:12:03;;;;;;;2.58;1.00;;;13.00;99.90;;;;;;20793165;28;20038;-83
2022/06/06 20:22:28;;;;;;;2.10;0.80;;;12.90;99.90;;;;;;20747311;28;20072;-83
2022/06/06 20:32:34;;;;;;;2.85;1.17;;;12.90;99.90;;;;;;20828764;28;20412;-84
2022/06/06 20:42:39;;;;;;;1.77;0.82;;;12.90;99.90;;;;;;20812102;28;20055;-84
2022/06/06 20:52:40;;;;;;;1.75;0.73;;;12.90;99.90;;;;;;20822510;28;20029;-83
2022/06/06 21:02:42;;;;;;;1.88;1.00;;;12.90;99.90;;;;;;20813509;28;20047;-83
2022/06/06 21:12:44;;;;;;;2.40;1.02;;;13.00;99.90;;;;;;20798321;28;20041;-83
2022/06/06 21:22:50;;;;;;;1.48;0.63;;;13.00;99.90;;;;;;20770005;28;20729;-83
2022/06/06 21:32:51;;;;;;;1.50;0.80;;;13.10;99.90;;;;;;20753290;28;20053;-83
2022/06/06 21:42:53;;;;;;;2.85;1.70;;;13.10;99.90;;;;;;20756061;28;20057;-84
2022/06/06 21:52:54;;;;;;;2.45;0.90;;;13.00;99.90;;;;;;20756809;28;20037;-83
2022/06/06 22:02:55;;;;;;;5.75;1.35;;;13.10;99.90;;;;;;20767388;28;20277;-83
2022/06/06 22:12:56;;;;;;;3.58;1.55;;;13.10;99.90;;;;;;20759383;28;20041;-83
2022/06/06 22:22:58;;;;;;;3.08;1.52;;;13.10;99.90;;;;;;20767867;28;20073;-84
2022/06/06 22:32:59;;;;;;;1.50;0.60;;;13.20;99.90;;;;;;20738950;28;20038;-83
2022/06/06 22:43:00;;;;;;;2.58;1.17;;;13.10;99.90;;;;;;20759879;28;20041;-83
2022/06/06 22:53:01;;;;;;;1.90;0.77;;;13.10;99.90;;;;;;20810205;28;20048;-83
2022/06/06 23:03:04;;;;;;;2.65;0.63;;;13.20;99.90;;;;;;20819638;28;20068;-83
2022/06/06 23:13:06;;;;;;;2.03;1.05;;;13.20;99.90;;;;;;20794167;28;20046;-83
2022/06/06 23:23:07;;;;;;;2.55;1.48;;;13.10;99.90;;;;;;20824700;28;20061;-83
2022/06/06 23:33:11;;;;;;;2.00;0.80;;;13.10;99.90;;;;;;20820828;28;20049;-84
2022/06/06 23:43:20;;;;;;;1.77;0.95;;;13.00;99.90;;;;;;20748083;28;20045;-83
2022/06/06 23:53:32;;;;;;;3.60;1.30;;;13.10;99.90;;;;;;20734172;28;20111;-83
